createdAt,value
2022-07-31T00:01:33.429Z,92.00
2022-07-31T00:04:35.542Z,91.67
2022-07-31T00:07:37.555Z,91.19
2022-07-31T00:10:39.579Z,91.38
2022-07-31T00:13:57.321Z,91.20
2022-07-31T00:17:00.910Z,92.36
2022-07-31T00:20:04.443Z,92.84
2022-07-31T00:23:06.430Z,93.05
2022-07-31T00:26:08.919Z,93.16
2022-07-31T00:29:11.250Z,93.20
2022-07-31T00:32:18.430Z,94.11
2022-07-31T00:35:20.825Z,93.85
2022-07-31T00:38:29.859Z,93.46
2022-07-31T00:41:40.593Z,93.49
2022-07-31T00:44:42.578Z,94.72
2022-07-31T00:47:49.727Z,94.00
2022-07-31T00:50:58.579Z,95.20
2022-07-31T00:54:00.559Z,94.08
2022-07-31T00:57:05.973Z,94.66
2022-07-31T01:00:08.818Z,94.12
2022-07-31T01:03:10.871Z,95.73
2022-07-31T01:06:13.457Z,95.59
2022-07-31T01:09:20.631Z,96.61
2022-07-31T01:12:52.337Z,96.87
2022-07-31T01:15:57.558Z,96.67
2022-07-31T01:19:00.146Z,97.21
2022-07-31T01:22:41.194Z,98.01
2022-07-31T01:26:04.712Z,97.55
2022-07-31T01:29:21.518Z,97.89
2022-07-31T01:32:29.806Z,98.34
2022-07-31T01:35:41.541Z,99.85
2022-07-31T01:38:47.892Z,98.65
2022-07-31T01:41:50.316Z,99.20
2022-07-31T01:44:56.179Z,98.55
2022-07-31T01:48:00.815Z,99.38
2022-07-31T01:51:09.050Z,99.61
2022-07-31T01:54:12.952Z,99.99
2022-07-31T01:57:17.251Z,100.00
2022-07-31T02:00:34.581Z,99.17
2022-07-31T02:03:43.787Z,99.79
2022-07-31T02:06:50.074Z,99.71
2022-07-31T02:09:58.335Z,98.98
2022-07-31T02:13:05.848Z,99.36
2022-07-31T02:16:10.350Z,98.26
2022-07-31T02:19:12.607Z,97.72
2022-07-31T02:22:15.674Z,97.28
2022-07-31T02:25:26.043Z,98.03
2022-07-31T02:28:28.650Z,97.58
2022-07-31T02:31:32.096Z,97.19
2022-07-31T02:34:35.042Z,98.63
2022-07-31T02:37:38.937Z,98.79
2022-07-31T02:40:42.472Z,97.05
2022-07-31T02:43:45.097Z,98.14
2022-07-31T02:46:53.716Z,98.59
2022-07-31T02:49:58.197Z,98.44
2022-07-31T02:53:00.086Z,98.77
2022-07-31T02:56:04.687Z,97.31
2022-07-31T02:59:10.800Z,96.76
2022-07-31T03:02:36.795Z,96.67
2022-07-31T03:05:41.014Z,97.07
2022-07-31T03:08:45.712Z,96.90
2022-07-31T03:11:51.226Z,96.52
2022-07-31T03:14:54.779Z,96.21
2022-07-31T03:17:58.819Z,95.83
2022-07-31T03:21:10.002Z,96.36
2022-07-31T03:24:12.316Z,98.32
2022-07-31T03:27:14.837Z,99.51
2022-07-31T03:30:18.796Z,99.14
2022-07-31T03:33:22.288Z,98.88
2022-07-31T03:36:24.309Z,99.01
2022-07-31T03:39:26.238Z,100.00
2022-07-31T03:42:32.505Z,100.00
2022-07-31T03:45:35.375Z,99.76
2022-07-31T03:48:38.498Z,100.00
2022-07-31T03:51:41.163Z,100.00
2022-07-31T03:54:44.495Z,100.00
2022-07-31T03:57:52.220Z,100.00
2022-07-31T04:00:56.563Z,100.00
2022-07-31T04:04:01.795Z,100.00
2022-07-31T04:07:12.009Z,100.00
2022-07-31T04:10:14.440Z,100.00
2022-07-31T04:13:19.182Z,100.00
2022-07-31T04:16:21.737Z,100.00
2022-07-31T04:19:24.100Z,100.00
2022-07-31T04:22:26.681Z,100.00
2022-07-31T04:25:30.268Z,100.00
2022-07-31T04:29:02.472Z,100.00
2022-07-31T04:32:05.530Z,100.00
2022-07-31T04:35:13.831Z,100.00
2022-07-31T04:38:17.268Z,100.00
2022-07-31T04:41:21.732Z,100.00
2022-07-31T04:44:24.488Z,100.00
2022-07-31T04:47:31.612Z,100.00
2022-07-31T04:50:33.687Z,100.00
2022-07-31T04:53:38.443Z,100.00
2022-07-31T04:56:43.892Z,100.00
2022-07-31T04:59:59.074Z,100.00
2022-07-31T05:03:08.668Z,100.00
2022-07-31T05:06:12.478Z,100.00
2022-07-31T05:09:23.632Z,100.00
2022-07-31T05:12:30.780Z,100.00
2022-07-31T05:15:36.464Z,100.00
2022-07-31T05:18:41.238Z,100.00
2022-07-31T05:22:02.904Z,100.00
2022-07-31T05:25:32.122Z,100.00
2022-07-31T05:28:35.082Z,100.00
2022-07-31T05:31:37.224Z,100.00
2022-07-31T05:34:40.344Z,100.00
2022-07-31T05:37:42.647Z,100.00
2022-07-31T05:40:46.347Z,100.00
2022-07-31T05:44:12.734Z,100.00
2022-07-31T05:47:18.092Z,100.00
2022-07-31T05:50:22.294Z,100.00
2022-07-31T05:53:25.349Z,100.00
2022-07-31T05:56:47.924Z,100.00
2022-07-31T05:59:53.810Z,100.00
2022-07-31T06:02:57.004Z,100.00
2022-07-31T06:06:17.671Z,100.00
2022-07-31T06:09:21.170Z,100.00
2022-07-31T06:12:24.039Z,99.30
2022-07-31T06:15:27.092Z,99.39
2022-07-31T06:18:29.231Z,99.12
2022-07-31T06:21:31.253Z,98.44
2022-07-31T06:24:33.850Z,99.36
2022-07-31T06:27:38.669Z,99.06
2022-07-31T06:30:43.995Z,99.41
2022-07-31T06:33:48.379Z,97.72
2022-07-31T06:36:52.095Z,99.20
2022-07-31T06:39:58.540Z,99.04
2022-07-31T06:43:20.724Z,96.56
2022-07-31T06:47:04.039Z,96.32
2022-07-31T06:50:25.937Z,94.11
2022-07-31T06:53:36.211Z,95.05
2022-07-31T06:56:39.488Z,94.52
2022-07-31T06:59:42.738Z,93.22
2022-07-31T07:02:45.504Z,94.81
2022-07-31T07:05:48.601Z,95.49
2022-07-31T07:08:52.265Z,94.17
2022-07-31T07:11:57.072Z,94.13
2022-07-31T07:15:01.333Z,95.09
2022-07-31T07:18:04.733Z,96.16
2022-07-31T07:21:15.987Z,94.49
2022-07-31T07:24:19.908Z,95.00
2022-07-31T07:27:29.775Z,94.78
2022-07-31T07:30:32.554Z,96.02
2022-07-31T07:33:41.438Z,94.40
2022-07-31T07:36:55.646Z,95.60
2022-07-31T07:40:05.588Z,95.90
2022-07-31T07:43:08.384Z,95.77
2022-07-31T07:46:11.041Z,95.70
2022-07-31T07:49:17.161Z,96.22
2022-07-31T07:52:28.808Z,96.43
2022-07-31T07:55:54.633Z,96.82
2022-07-31T07:59:15.541Z,96.96
2022-07-31T08:02:37.540Z,97.20
2022-07-31T08:05:40.897Z,97.42
2022-07-31T08:08:49.337Z,96.95
2022-07-31T08:12:11.444Z,98.23
2022-07-31T08:15:32.893Z,99.68
2022-07-31T08:18:43.578Z,99.18
2022-07-31T08:21:45.910Z,98.28
2022-07-31T08:24:48.518Z,99.65
2022-07-31T08:27:51.538Z,97.95
2022-07-31T08:30:57.098Z,98.13
2022-07-31T08:33:59.879Z,98.11
2022-07-31T08:37:51.011Z,98.92
2022-07-31T08:40:26.144Z,100.00
2022-07-31T08:44:03.097Z,99.57
2022-07-31T08:46:56.197Z,98.98
2022-07-31T08:49:58.962Z,99.97
2022-07-31T08:53:04.313Z,99.18
2022-07-31T08:56:27.993Z,97.47
2022-07-31T08:59:30.554Z,99.12
2022-07-31T09:02:33.509Z,99.20
2022-07-31T09:05:54.613Z,98.58
2022-07-31T09:08:57.180Z,97.58
2022-07-31T09:11:59.565Z,97.97
2022-07-31T09:15:30.421Z,98.50
2022-07-31T09:18:35.999Z,97.44
2022-07-31T09:21:44.312Z,98.12
2022-07-31T09:24:46.886Z,98.84
2022-07-31T09:27:50.050Z,98.94
2022-07-31T09:30:57.027Z,98.66
2022-07-31T09:34:30.918Z,96.91
2022-07-31T09:37:50.844Z,96.81
2022-07-31T09:41:56.217Z,96.49
2022-07-31T09:45:31.362Z,96.79
2022-07-31T09:48:34.525Z,95.92
2022-07-31T09:51:45.269Z,94.84
2022-07-31T09:55:14.351Z,96.15
2022-07-31T09:58:21.605Z,95.36
2022-07-31T10:01:24.396Z,95.88
2022-07-31T10:04:26.633Z,95.88
2022-07-31T10:07:32.487Z,95.20
2022-07-31T10:10:46.762Z,96.68
2022-07-31T10:14:10.679Z,95.89
2022-07-31T10:17:15.240Z,96.36
2022-07-31T10:20:36.827Z,97.35
2022-07-31T10:23:45.910Z,98.02
2022-07-31T10:27:00.151Z,93.90
2022-07-31T10:30:08.060Z,95.56
2022-07-31T10:33:41.837Z,95.16
2022-07-31T10:37:11.275Z,94.32
2022-07-31T10:40:42.996Z,95.33
2022-07-31T10:43:53.470Z,94.51
2022-07-31T10:47:18.253Z,95.26
2022-07-31T10:51:03.327Z,95.38
2022-07-31T10:54:24.020Z,93.74
2022-07-31T10:57:56.254Z,95.05
2022-07-31T11:01:32.167Z,94.62
2022-07-31T11:05:06.930Z,94.09
2022-07-31T11:08:28.513Z,94.66
2022-07-31T11:11:39.298Z,95.36
2022-07-31T11:15:00.447Z,95.03
2022-07-31T11:18:38.140Z,96.21
2022-07-31T11:21:42.576Z,96.00
2022-07-31T11:24:55.698Z,96.20
2022-07-31T11:28:09.623Z,95.17
2022-07-31T11:31:12.265Z,95.67
2022-07-31T11:34:14.399Z,95.49
2022-07-31T11:37:18.109Z,94.96
2022-07-31T11:40:22.257Z,93.91
2022-07-31T11:43:26.220Z,92.38
2022-07-31T11:46:32.323Z,93.98
2022-07-31T11:49:48.374Z,94.12
2022-07-31T11:52:51.511Z,95.35
2022-07-31T11:55:57.637Z,95.28
2022-07-31T11:58:59.709Z,95.97
2022-07-31T12:02:12.373Z,93.90
2022-07-31T12:05:14.929Z,95.67
2022-07-31T12:08:17.697Z,96.08
2022-07-31T12:11:20.923Z,96.33
2022-07-31T12:14:37.685Z,97.24
2022-07-31T12:17:41.492Z,97.37
2022-07-31T12:20:55.856Z,97.39
2022-07-31T12:23:58.613Z,97.80
2022-07-31T12:27:00.979Z,97.21
2022-07-31T12:30:14.134Z,95.79
2022-07-31T12:33:18.046Z,96.97
2022-07-31T12:36:20.789Z,96.64
2022-07-31T12:39:23.127Z,95.62
2022-07-31T12:42:41.289Z,94.89
2022-07-31T12:45:45.352Z,94.06
2022-07-31T12:48:47.654Z,93.63
2022-07-31T12:51:50.732Z,93.42
2022-07-31T12:54:53.253Z,92.74
2022-07-31T12:57:55.809Z,93.95
2022-07-31T13:00:57.944Z,92.32
2022-07-31T13:04:00.976Z,91.42
2022-07-31T13:07:06.530Z,90.35
2022-07-31T13:10:18.941Z,90.10
2022-07-31T13:13:25.958Z,89.02
2022-07-31T13:16:28.177Z,87.68
2022-07-31T13:19:31.778Z,87.32
2022-07-31T13:22:34.880Z,85.05
2022-07-31T13:25:36.931Z,85.92
2022-07-31T13:28:39.989Z,86.20
2022-07-31T13:31:42.207Z,85.14
2022-07-31T13:34:44.445Z,86.10
2022-07-31T13:37:47.244Z,86.19
2022-07-31T13:41:09.913Z,84.66
2022-07-31T13:44:13.332Z,84.81
2022-07-31T13:47:15.791Z,84.68
2022-07-31T13:50:17.875Z,84.29
2022-07-31T13:53:20.145Z,83.40
2022-07-31T13:56:42.012Z,82.87
2022-07-31T13:59:45.060Z,82.08
2022-07-31T14:02:47.477Z,80.98
2022-07-31T14:05:51.444Z,81.09
2022-07-31T14:08:53.463Z,80.84
2022-07-31T14:11:56.102Z,80.37
2022-07-31T14:14:58.493Z,79.52
2022-07-31T14:18:02.410Z,80.18
2022-07-31T14:21:08.671Z,79.74
2022-07-31T14:24:10.710Z,79.54
2022-07-31T14:27:13.032Z,79.73
2022-07-31T14:30:19.862Z,80.58
2022-07-31T14:33:22.312Z,79.65
2022-07-31T14:36:24.378Z,78.65
2022-07-31T14:39:26.700Z,80.20
2022-07-31T14:42:29.088Z,78.22
2022-07-31T14:45:31.559Z,79.42
2022-07-31T14:48:41.216Z,77.81
2022-07-31T14:51:43.215Z,77.33
2022-07-31T14:54:47.654Z,78.25
2022-07-31T14:57:50.560Z,75.87
2022-07-31T15:00:52.911Z,77.29
2022-07-31T15:03:54.912Z,77.17
2022-07-31T15:07:13.033Z,73.74
2022-07-31T15:10:19.359Z,71.21
2022-07-31T15:13:21.787Z,72.90
2022-07-31T15:16:23.859Z,71.30
2022-07-31T15:19:26.250Z,71.70
2022-07-31T15:22:28.538Z,68.55
2022-07-31T15:25:30.913Z,69.48
2022-07-31T15:28:33.184Z,69.55
2022-07-31T15:31:35.339Z,67.19
2022-07-31T15:34:39.263Z,69.18
2022-07-31T15:37:44.269Z,70.72
2022-07-31T15:40:50.537Z,71.35
2022-07-31T15:43:52.725Z,71.69
2022-07-31T15:46:55.106Z,73.06
2022-07-31T15:50:00.016Z,71.00
2022-07-31T15:53:03.557Z,72.63
2022-07-31T15:56:06.198Z,70.33
2022-07-31T15:59:08.513Z,70.80
2022-07-31T16:02:12.844Z,72.78
2022-07-31T16:05:21.479Z,71.41
2022-07-31T16:08:28.944Z,74.09
2022-07-31T16:12:03.879Z,75.34
2022-07-31T16:15:00.349Z,74.65
2022-07-31T16:18:03.312Z,73.11
2022-07-31T16:21:05.581Z,72.39
2022-07-31T16:24:07.709Z,71.32
2022-07-31T16:27:10.324Z,70.01
2022-07-31T16:30:13.866Z,69.39
2022-07-31T16:33:17.578Z,68.27
2022-07-31T16:36:27.115Z,68.34
2022-07-31T16:39:31.685Z,69.07
2022-07-31T16:42:33.815Z,68.36
2022-07-31T16:45:38.842Z,68.77
2022-07-31T16:48:41.279Z,65.76
2022-07-31T16:51:43.321Z,67.27
2022-07-31T16:54:46.281Z,67.90
2022-07-31T16:57:48.255Z,68.19
2022-07-31T17:00:50.534Z,69.30
2022-07-31T17:04:00.106Z,70.88
2022-07-31T17:07:04.539Z,69.82
2022-07-31T17:10:07.646Z,69.66
2022-07-31T17:13:11.982Z,69.56
2022-07-31T17:16:15.688Z,72.05
2022-07-31T17:19:42.793Z,72.90
2022-07-31T17:22:44.857Z,74.38
2022-07-31T17:25:53.261Z,74.80
2022-07-31T17:28:55.337Z,74.71
2022-07-31T17:31:59.833Z,76.39
2022-07-31T17:35:06.398Z,76.47
2022-07-31T17:38:08.784Z,78.00
2022-07-31T17:41:25.534Z,77.82
2022-07-31T17:44:28.255Z,80.15
2022-07-31T17:47:30.567Z,81.28
2022-07-31T17:50:33.155Z,81.15
2022-07-31T17:53:54.450Z,80.99
2022-07-31T17:57:03.885Z,81.55
2022-07-31T18:00:12.842Z,83.19
2022-07-31T18:03:19.960Z,82.70
2022-07-31T18:06:31.033Z,83.38
2022-07-31T18:09:38.197Z,83.99
2022-07-31T18:12:57.584Z,84.50
2022-07-31T18:16:06.707Z,84.03
2022-07-31T18:19:13.826Z,85.02
2022-07-31T18:22:19.297Z,86.92
2022-07-31T18:25:30.365Z,87.76
2022-07-31T18:28:37.028Z,88.42
2022-07-31T18:31:47.217Z,88.38
2022-07-31T18:34:49.370Z,89.33
2022-07-31T18:37:52.670Z,89.32
2022-07-31T18:40:56.198Z,90.11
2022-07-31T18:43:58.254Z,90.64
2022-07-31T18:47:00.482Z,90.76
2022-07-31T18:51:00.116Z,91.48
2022-07-31T18:53:25.964Z,91.73
2022-07-31T18:56:30.882Z,92.54
2022-07-31T18:59:36.887Z,92.76
2022-07-31T19:02:43.475Z,92.78
2022-07-31T19:05:48.979Z,93.53
2022-07-31T19:08:52.777Z,93.25
2022-07-31T19:11:58.600Z,93.61
2022-07-31T19:15:03.301Z,92.92
2022-07-31T19:18:08.293Z,94.06
2022-07-31T19:21:22.687Z,93.34
2022-07-31T19:24:33.750Z,93.12
2022-07-31T19:27:46.984Z,92.71
2022-07-31T19:30:52.742Z,91.39
2022-07-31T19:33:54.992Z,91.03
2022-07-31T19:36:57.679Z,91.40
2022-07-31T19:40:00.053Z,89.74
2022-07-31T19:43:03.164Z,89.86
2022-07-31T19:46:11.565Z,89.13
2022-07-31T19:49:21.032Z,89.75
2022-07-31T19:52:23.383Z,89.22
2022-07-31T19:55:25.908Z,89.79
2022-07-31T19:58:28.237Z,90.15
2022-07-31T20:01:30.735Z,89.37
2022-07-31T20:04:33.346Z,88.25
2022-07-31T20:07:35.583Z,87.76
2022-07-31T20:10:38.289Z,87.00
2022-07-31T20:13:40.851Z,86.79
2022-07-31T20:16:47.795Z,86.59
2022-07-31T20:20:14.491Z,87.71
2022-07-31T20:23:11.757Z,86.45
2022-07-31T20:26:14.520Z,87.10
2022-07-31T20:29:17.034Z,86.91
2022-07-31T20:32:19.180Z,87.79
2022-07-31T20:35:33.093Z,87.28
2022-07-31T20:38:48.597Z,88.06
2022-07-31T20:41:51.405Z,87.60
2022-07-31T20:44:53.696Z,87.07
2022-07-31T20:47:57.164Z,86.71
2022-07-31T20:51:00.394Z,86.98
2022-07-31T20:54:03.095Z,87.65
2022-07-31T20:57:05.229Z,90.69
2022-07-31T21:00:08.212Z,92.58
2022-07-31T21:03:16.883Z,93.65
2022-07-31T21:06:21.105Z,94.04
2022-07-31T21:09:23.808Z,94.66
2022-07-31T21:12:29.642Z,95.46
2022-07-31T21:15:43.316Z,94.85
2022-07-31T21:18:48.146Z,95.33
2022-07-31T21:21:51.445Z,96.59
2022-07-31T21:24:53.733Z,97.19
2022-07-31T21:27:59.939Z,97.75
2022-07-31T21:31:02.322Z,98.71
2022-07-31T21:34:05.240Z,98.73
2022-07-31T21:37:07.597Z,99.67
2022-07-31T21:40:10.333Z,99.59
2022-07-31T21:43:16.616Z,100.00
2022-07-31T21:46:22.902Z,100.00
2022-07-31T21:49:26.050Z,100.00
2022-07-31T21:52:30.161Z,100.00
2022-07-31T21:55:35.917Z,100.00
2022-07-31T21:58:41.004Z,100.00
2022-07-31T22:01:57.733Z,100.00
2022-07-31T22:05:22.601Z,100.00
2022-07-31T22:08:24.679Z,100.00
2022-07-31T22:11:26.915Z,100.00
2022-07-31T22:14:28.906Z,100.00
2022-07-31T22:17:30.847Z,100.00
2022-07-31T22:20:33.111Z,100.00
2022-07-31T22:23:36.406Z,100.00
2022-07-31T22:26:38.857Z,100.00
2022-07-31T22:29:41.083Z,100.00
2022-07-31T22:32:43.477Z,100.00
2022-07-31T22:35:45.536Z,100.00
2022-07-31T22:39:01.009Z,100.00
2022-07-31T22:42:03.302Z,100.00
2022-07-31T22:45:06.506Z,100.00
2022-07-31T22:48:09.793Z,100.00
2022-07-31T22:51:14.370Z,100.00
2022-07-31T22:54:17.331Z,100.00
2022-07-31T22:57:19.201Z,100.00
2022-07-31T23:00:21.900Z,100.00
2022-07-31T23:03:23.766Z,100.00
2022-07-31T23:06:31.381Z,100.00
2022-07-31T23:09:36.367Z,100.00
2022-07-31T23:12:38.722Z,100.00
2022-07-31T23:15:41.583Z,100.00
2022-07-31T23:18:43.767Z,100.00
2022-07-31T23:21:45.864Z,100.00
2022-07-31T23:24:48.325Z,100.00
2022-07-31T23:27:50.564Z,100.00
2022-07-31T23:30:53.120Z,100.00
2022-07-31T23:33:55.258Z,100.00
2022-07-31T23:36:57.465Z,100.00
2022-07-31T23:39:59.752Z,100.00
2022-07-31T23:43:02.632Z,100.00
2022-07-31T23:46:05.492Z,100.00
2022-07-31T23:49:08.666Z,100.00
2022-07-31T23:52:11.024Z,100.00
2022-07-31T23:55:13.364Z,100.00
2022-07-31T23:58:15.237Z,100.00
